createdAt,value
2022-12-31T00:00:21.072Z,143.70
2022-12-31T00:02:48.067Z,156.00
2022-12-31T00:05:15.125Z,283.00
2022-12-31T00:10:08.837Z,213.50
2022-12-31T00:12:35.617Z,214.00
2022-12-31T00:15:03.724Z,255.10
2022-12-31T00:17:30.565Z,243.90
2022-12-31T00:19:57.340Z,228.00
2022-12-31T00:22:24.255Z,212.10
2022-12-31T00:24:51.092Z,219.20
2022-12-31T00:27:17.953Z,252.60
2022-12-31T00:29:44.713Z,216.20
2022-12-31T00:32:11.516Z,219.80
2022-12-31T00:34:38.366Z,260.20
2022-12-31T00:37:05.343Z,251.70
2022-12-31T00:39:32.149Z,206.70
2022-12-31T00:41:59.092Z,200.90
2022-12-31T00:44:25.940Z,183.10
2022-12-31T00:46:52.782Z,221.50
2022-12-31T00:49:19.797Z,203.60
2022-12-31T00:51:47.492Z,156.70
2022-12-31T00:54:14.636Z,166.40
2022-12-31T00:56:41.485Z,146.30
2022-12-31T00:59:08.338Z,148.40
2022-12-31T01:01:38.769Z,166.00
2022-12-31T01:04:17.389Z,209.40
2022-12-31T01:06:44.651Z,119.10
2022-12-31T01:09:13.996Z,139.00
2022-12-31T01:11:42.560Z,130.90
2022-12-31T01:14:14.270Z,152.80
2022-12-31T01:16:47.781Z,186.80
2022-12-31T01:19:29.566Z,159.70
2022-12-31T01:21:57.274Z,93.40
2022-12-31T01:24:24.801Z,131.30
2022-12-31T01:26:52.247Z,132.70
2022-12-31T01:29:19.339Z,130.00
2022-12-31T01:31:46.441Z,127.50
2022-12-31T01:34:13.284Z,179.90
2022-12-31T01:36:40.131Z,182.20
2022-12-31T01:39:08.844Z,144.20
2022-12-31T01:41:41.200Z,124.30
2022-12-31T01:44:14.049Z,110.40
2022-12-31T01:47:01.499Z,62.60
2022-12-31T01:49:50.258Z,164.10
2022-12-31T01:52:31.697Z,125.70
2022-12-31T01:55:06.571Z,158.70
2022-12-31T01:57:34.235Z,165.90
2022-12-31T02:00:02.115Z,210.40
2022-12-31T02:02:31.889Z,199.60
2022-12-31T02:05:03.529Z,213.00
2022-12-31T02:07:30.346Z,228.20
2022-12-31T02:09:57.660Z,182.80
2022-12-31T02:12:24.610Z,179.80
2022-12-31T02:14:53.834Z,125.60
2022-12-31T02:17:38.780Z,152.80
2022-12-31T02:20:45.684Z,162.80
2022-12-31T02:23:48.876Z,155.60
2022-12-31T02:26:18.589Z,111.30
2022-12-31T02:29:16.555Z,105.80
2022-12-31T02:32:05.829Z,157.90
2022-12-31T02:34:37.564Z,156.90
2022-12-31T02:37:11.263Z,94.10
2022-12-31T02:39:39.759Z,71.20
2022-12-31T02:42:06.845Z,106.70
2022-12-31T02:44:36.575Z,108.30
2022-12-31T02:47:06.756Z,121.40
2022-12-31T02:49:57.091Z,126.80
2022-12-31T02:53:09.503Z,97.90
2022-12-31T02:55:52.830Z,74.50
2022-12-31T02:59:02.037Z,73.50
2022-12-31T03:01:55.828Z,62.50
2022-12-31T03:04:36.009Z,65.30
2022-12-31T03:07:10.324Z,109.50
2022-12-31T03:09:38.075Z,101.60
2022-12-31T03:12:28.884Z,116.60
2022-12-31T03:14:55.758Z,156.90
2022-12-31T03:17:22.680Z,102.80
2022-12-31T03:20:08.476Z,138.90
2022-12-31T03:22:40.015Z,123.30
2022-12-31T03:25:31.922Z,114.00
2022-12-31T03:27:59.324Z,83.60
2022-12-31T03:30:26.881Z,78.50
2022-12-31T03:32:56.329Z,81.20
2022-12-31T03:35:25.886Z,73.90
2022-12-31T03:37:53.785Z,69.50
2022-12-31T03:40:25.764Z,102.40
2022-12-31T03:42:53.284Z,50.80
2022-12-31T03:45:20.998Z,51.50
2022-12-31T03:47:48.317Z,33.10
2022-12-31T03:50:18.396Z,30.70
2022-12-31T03:52:45.760Z,28.90
2022-12-31T03:55:13.418Z,23.20
2022-12-31T03:57:41.056Z,16.50
2022-12-31T04:00:13.311Z,19.60
2022-12-31T04:02:41.299Z,20.70
2022-12-31T04:05:10.683Z,19.50
2022-12-31T04:07:37.875Z,19.60
2022-12-31T04:10:08.938Z,19.20
2022-12-31T04:12:36.372Z,17.80
2022-12-31T04:15:04.624Z,17.90
2022-12-31T04:17:32.055Z,20.00
2022-12-31T04:19:58.949Z,14.50
2022-12-31T04:22:26.000Z,13.50
2022-12-31T04:24:52.738Z,13.50
2022-12-31T04:27:19.581Z,12.30
2022-12-31T04:29:46.388Z,13.40
2022-12-31T04:32:13.125Z,12.10
2022-12-31T04:34:39.947Z,16.30
2022-12-31T04:37:07.363Z,15.90
2022-12-31T04:39:34.794Z,16.40
2022-12-31T04:42:01.664Z,15.00
2022-12-31T04:44:28.510Z,16.00
2022-12-31T04:46:56.099Z,14.80
2022-12-31T04:49:22.914Z,15.00
2022-12-31T04:51:49.756Z,14.90
2022-12-31T04:54:16.607Z,15.80
2022-12-31T04:56:43.350Z,11.90
2022-12-31T04:59:10.602Z,14.00
2022-12-31T05:01:38.773Z,14.30
2022-12-31T05:04:06.328Z,15.80
2022-12-31T05:06:33.142Z,11.90
2022-12-31T05:09:01.340Z,13.80
2022-12-31T05:11:28.150Z,10.90
2022-12-31T05:13:55.060Z,13.30
2022-12-31T05:16:21.896Z,15.20
2022-12-31T05:18:48.660Z,14.40
2022-12-31T05:21:21.299Z,11.90
2022-12-31T05:23:49.194Z,8.80
2022-12-31T05:26:16.918Z,11.20
2022-12-31T05:28:44.358Z,12.40
2022-12-31T05:31:11.457Z,9.80
2022-12-31T05:33:38.256Z,12.00
2022-12-31T05:36:06.070Z,10.90
2022-12-31T05:38:33.165Z,9.80
2022-12-31T05:41:05.484Z,12.50
2022-12-31T05:43:33.215Z,11.30
2022-12-31T05:46:02.370Z,9.40
2022-12-31T05:48:29.367Z,10.00
2022-12-31T05:50:56.524Z,12.60
2022-12-31T05:53:24.102Z,12.70
2022-12-31T05:55:50.918Z,12.90
2022-12-31T05:58:17.871Z,12.20
2022-12-31T06:00:46.152Z,13.90
2022-12-31T06:03:13.320Z,13.50
2022-12-31T06:05:43.728Z,12.60
2022-12-31T06:08:12.348Z,12.90
2022-12-31T06:10:40.491Z,11.80
2022-12-31T06:13:08.324Z,15.40
2022-12-31T06:15:39.821Z,13.80
2022-12-31T06:18:07.613Z,15.70
2022-12-31T06:20:37.931Z,13.30
2022-12-31T06:23:05.785Z,11.20
2022-12-31T06:25:35.265Z,12.20
2022-12-31T06:28:02.106Z,11.40
2022-12-31T06:30:28.950Z,13.00
2022-12-31T06:32:56.383Z,13.30
2022-12-31T06:35:23.563Z,12.50
2022-12-31T06:37:52.342Z,15.00
2022-12-31T06:40:19.087Z,10.80
2022-12-31T06:42:46.253Z,11.30
2022-12-31T06:45:12.977Z,13.20
2022-12-31T06:47:39.776Z,12.30
2022-12-31T06:50:07.367Z,14.30
2022-12-31T06:52:34.229Z,15.10
2022-12-31T06:55:01.441Z,14.70
2022-12-31T06:57:28.731Z,11.80
2022-12-31T06:59:56.017Z,11.00
2022-12-31T07:03:07.825Z,11.30
2022-12-31T07:05:53.161Z,9.80
2022-12-31T07:08:32.492Z,11.50
2022-12-31T07:11:45.776Z,12.60
2022-12-31T07:14:48.509Z,12.20
2022-12-31T07:17:57.351Z,10.80
2022-12-31T07:20:25.075Z,12.90
2022-12-31T07:22:52.635Z,13.20
2022-12-31T07:25:20.687Z,12.30
2022-12-31T07:28:09.980Z,10.80
2022-12-31T07:30:54.727Z,10.80
2022-12-31T07:34:02.992Z,9.40
2022-12-31T07:36:50.937Z,7.70
2022-12-31T07:39:38.988Z,12.40
2022-12-31T07:42:24.502Z,10.10
2022-12-31T07:44:56.918Z,8.10
2022-12-31T07:47:27.894Z,9.70
2022-12-31T07:49:56.677Z,9.90
2022-12-31T07:52:24.542Z,8.70
2022-12-31T07:54:51.688Z,5.90
2022-12-31T07:57:21.366Z,10.00
2022-12-31T08:00:13.887Z,10.60
2022-12-31T08:03:12.566Z,9.90
2022-12-31T08:06:31.732Z,9.60
2022-12-31T08:09:35.328Z,9.70
2022-12-31T08:12:02.996Z,9.50
2022-12-31T08:14:30.783Z,11.70
2022-12-31T08:16:58.606Z,8.80
2022-12-31T08:19:32.457Z,9.40
2022-12-31T08:22:39.626Z,10.20
2022-12-31T08:25:25.229Z,8.50
2022-12-31T08:28:18.204Z,8.20
2022-12-31T08:31:00.512Z,7.90
2022-12-31T08:33:40.516Z,7.90
2022-12-31T08:36:21.895Z,7.40
2022-12-31T08:39:30.051Z,7.70
2022-12-31T08:41:58.791Z,7.30
2022-12-31T08:44:38.486Z,6.20
2022-12-31T08:47:46.936Z,5.80
2022-12-31T08:50:18.811Z,6.90
2022-12-31T08:52:48.138Z,6.10
2022-12-31T08:55:18.248Z,5.30
2022-12-31T08:58:24.953Z,7.00
2022-12-31T09:00:57.754Z,6.10
2022-12-31T09:03:46.810Z,5.20
2022-12-31T09:06:30.076Z,5.90
2022-12-31T09:09:44.898Z,6.60
2022-12-31T09:12:40.005Z,5.60
2022-12-31T09:15:12.577Z,5.30
2022-12-31T09:17:52.574Z,4.90
2022-12-31T09:20:42.353Z,3.80
2022-12-31T09:23:12.424Z,5.20
2022-12-31T09:26:01.597Z,4.60
2022-12-31T09:28:52.400Z,4.20
2022-12-31T09:31:37.523Z,4.00
2022-12-31T09:34:21.213Z,5.60
2022-12-31T09:37:00.028Z,4.70
2022-12-31T09:39:44.387Z,4.10
2022-12-31T09:42:48.295Z,5.20
2022-12-31T09:45:46.921Z,5.40
2022-12-31T09:49:08.691Z,5.50
2022-12-31T09:51:57.280Z,6.30
2022-12-31T09:54:36.917Z,4.80
2022-12-31T09:57:40.410Z,5.10
2022-12-31T10:00:43.713Z,5.80
2022-12-31T10:03:43.220Z,4.80
2022-12-31T10:06:23.513Z,5.20
2022-12-31T10:09:38.757Z,5.00
2022-12-31T10:12:47.481Z,6.10
2022-12-31T10:15:40.439Z,5.60
2022-12-31T10:18:55.109Z,5.40
2022-12-31T10:21:46.460Z,4.30
2022-12-31T10:24:28.541Z,5.20
2022-12-31T10:27:24.297Z,5.10
2022-12-31T10:30:19.562Z,4.90
2022-12-31T10:33:04.733Z,5.40
2022-12-31T10:35:39.044Z,4.50
2022-12-31T10:38:55.170Z,5.40
2022-12-31T10:42:10.967Z,5.20
2022-12-31T10:44:55.721Z,5.90
2022-12-31T10:48:17.962Z,5.90
2022-12-31T10:51:19.211Z,5.40
2022-12-31T10:54:17.096Z,5.10
2022-12-31T10:57:07.571Z,4.90
2022-12-31T10:59:55.825Z,3.70
2022-12-31T11:02:40.719Z,5.70
2022-12-31T11:05:46.407Z,4.40
2022-12-31T11:09:04.466Z,6.10
2022-12-31T11:12:17.516Z,3.00
2022-12-31T11:15:21.478Z,5.80
2022-12-31T11:18:12.905Z,4.30
2022-12-31T11:21:01.023Z,5.40
2022-12-31T11:23:49.116Z,6.30
2022-12-31T11:27:03.040Z,5.00
2022-12-31T11:30:01.799Z,5.30
2022-12-31T11:33:21.187Z,6.10
2022-12-31T11:36:55.586Z,5.50
2022-12-31T11:39:57.469Z,5.50
2022-12-31T11:43:04.313Z,5.90
2022-12-31T11:46:03.091Z,6.50
2022-12-31T11:48:54.464Z,6.60
2022-12-31T11:52:06.526Z,5.70
2022-12-31T11:54:55.624Z,5.30
2022-12-31T11:57:31.376Z,5.00
2022-12-31T12:00:04.976Z,5.60
2022-12-31T12:02:46.709Z,5.30
2022-12-31T12:05:18.455Z,4.50
2022-12-31T12:07:45.376Z,6.20
2022-12-31T12:10:23.422Z,7.00
2022-12-31T12:12:52.118Z,5.50
2022-12-31T12:15:32.116Z,9.00
2022-12-31T12:18:13.295Z,6.90
2022-12-31T12:20:43.216Z,6.20
2022-12-31T12:23:24.246Z,5.60
2022-12-31T12:25:52.055Z,5.80
2022-12-31T12:28:24.340Z,6.00
2022-12-31T12:31:04.957Z,5.00
2022-12-31T12:33:44.619Z,6.50
2022-12-31T12:36:15.787Z,4.10
2022-12-31T12:38:43.762Z,8.10
2022-12-31T12:41:25.500Z,4.80
2022-12-31T12:44:15.251Z,5.80
2022-12-31T12:46:50.496Z,6.80
2022-12-31T12:49:29.781Z,6.40
2022-12-31T12:52:15.940Z,7.00
2022-12-31T12:55:15.867Z,5.60
2022-12-31T12:57:57.969Z,5.60
2022-12-31T13:00:45.201Z,5.50
2022-12-31T13:04:23.709Z,6.20
2022-12-31T13:07:05.189Z,5.50
2022-12-31T13:09:54.340Z,7.10
2022-12-31T13:12:48.938Z,7.70
2022-12-31T13:15:49.027Z,6.80
2022-12-31T13:18:50.960Z,5.80
2022-12-31T13:21:51.504Z,6.30
2022-12-31T13:24:30.609Z,4.90
2022-12-31T13:27:04.633Z,6.40
2022-12-31T13:29:35.279Z,4.60
2022-12-31T13:32:08.321Z,6.10
2022-12-31T13:34:42.062Z,7.30
2022-12-31T13:37:38.005Z,6.80
2022-12-31T13:40:29.903Z,5.80
2022-12-31T13:43:04.027Z,5.40
2022-12-31T13:45:39.121Z,6.40
2022-12-31T13:48:30.991Z,6.70
2022-12-31T13:51:18.845Z,4.30
2022-12-31T13:54:13.881Z,7.40
2022-12-31T13:56:42.925Z,8.00
2022-12-31T13:59:31.990Z,6.60
2022-12-31T14:02:27.144Z,6.00
2022-12-31T14:05:16.142Z,6.70
2022-12-31T14:07:58.319Z,7.10
2022-12-31T14:11:02.167Z,9.20
2022-12-31T14:14:01.314Z,8.30
2022-12-31T14:16:51.592Z,8.60
2022-12-31T14:19:58.952Z,6.60
2022-12-31T14:22:36.466Z,9.50
2022-12-31T14:25:17.257Z,5.20
2022-12-31T14:27:47.610Z,9.60
2022-12-31T14:30:24.228Z,5.70
2022-12-31T14:33:11.041Z,6.30
2022-12-31T14:36:10.589Z,6.90
2022-12-31T14:39:22.484Z,7.50
2022-12-31T14:42:38.457Z,9.10
2022-12-31T14:45:26.498Z,10.60
2022-12-31T14:48:11.221Z,11.60
2022-12-31T14:50:38.617Z,10.30
2022-12-31T14:53:07.938Z,7.80
2022-12-31T14:55:40.976Z,8.00
2022-12-31T14:58:44.956Z,10.10
2022-12-31T15:01:19.105Z,9.00
2022-12-31T15:03:46.576Z,11.10
2022-12-31T15:06:22.708Z,8.80
2022-12-31T15:09:09.962Z,10.70
2022-12-31T15:12:23.787Z,11.10
2022-12-31T15:15:17.994Z,11.70
2022-12-31T15:17:59.737Z,10.80
2022-12-31T15:21:09.843Z,10.90
2022-12-31T15:23:39.999Z,12.10
2022-12-31T15:26:08.663Z,9.80
2022-12-31T15:28:37.907Z,10.20
2022-12-31T15:31:19.902Z,12.30
2022-12-31T15:34:01.968Z,10.40
2022-12-31T15:36:35.905Z,8.60
2022-12-31T15:39:11.967Z,11.90
2022-12-31T15:42:10.285Z,10.90
2022-12-31T15:44:35.974Z,12.00
2022-12-31T15:47:28.859Z,10.50
2022-12-31T15:49:56.604Z,11.90
2022-12-31T15:52:48.094Z,11.20
2022-12-31T15:55:37.935Z,12.20
2022-12-31T15:58:11.613Z,11.70
2022-12-31T16:01:23.937Z,10.30
2022-12-31T16:04:04.405Z,12.40
2022-12-31T16:06:44.869Z,11.90
2022-12-31T16:09:28.403Z,10.50
2022-12-31T16:11:57.696Z,11.90
2022-12-31T16:14:42.585Z,11.90
2022-12-31T16:17:36.457Z,11.50
2022-12-31T16:20:24.346Z,13.70
2022-12-31T16:22:59.052Z,13.70
2022-12-31T16:25:31.155Z,12.30
2022-12-31T16:27:59.000Z,13.00
2022-12-31T16:30:32.593Z,14.80
2022-12-31T16:33:04.871Z,14.30
2022-12-31T16:35:36.999Z,15.00
2022-12-31T16:38:18.908Z,13.30
2022-12-31T16:41:01.101Z,14.20
2022-12-31T16:43:40.225Z,14.00
2022-12-31T16:46:28.528Z,12.30
2022-12-31T16:49:14.764Z,15.50
2022-12-31T16:51:42.143Z,14.40
2022-12-31T16:54:21.168Z,15.60
2022-12-31T16:56:48.325Z,14.70
2022-12-31T16:59:34.925Z,17.50
2022-12-31T17:02:06.903Z,16.30
2022-12-31T17:04:34.234Z,14.60
2022-12-31T17:07:30.304Z,19.00
2022-12-31T17:10:07.953Z,20.80
2022-12-31T17:13:17.561Z,19.30
2022-12-31T17:15:50.478Z,16.90
2022-12-31T17:18:21.682Z,16.80
2022-12-31T17:20:53.867Z,16.20
2022-12-31T17:23:29.060Z,16.10
2022-12-31T17:26:06.912Z,19.70
2022-12-31T17:28:43.336Z,14.10
2022-12-31T17:31:33.666Z,18.10
2022-12-31T17:34:12.769Z,16.10
2022-12-31T17:36:58.671Z,14.80
2022-12-31T17:39:27.324Z,18.90
2022-12-31T17:41:59.000Z,16.80
2022-12-31T17:44:29.008Z,12.20
2022-12-31T17:46:56.678Z,14.10
2022-12-31T17:49:30.318Z,12.40
2022-12-31T17:51:57.826Z,15.90
2022-12-31T17:54:24.609Z,13.90
2022-12-31T17:56:52.969Z,11.00
2022-12-31T17:59:24.184Z,15.40
2022-12-31T18:01:51.051Z,13.30
2022-12-31T18:04:20.821Z,13.20
2022-12-31T18:06:47.691Z,13.40
2022-12-31T18:09:16.067Z,10.40
2022-12-31T18:11:43.441Z,13.70
2022-12-31T18:14:16.208Z,11.60
2022-12-31T18:16:43.020Z,11.90
2022-12-31T18:19:37.729Z,12.90
2022-12-31T18:22:02.356Z,15.50
2022-12-31T18:24:29.105Z,13.80
2022-12-31T18:26:56.020Z,13.80
2022-12-31T18:29:22.787Z,11.20
2022-12-31T18:31:50.428Z,11.50
2022-12-31T18:34:18.450Z,12.40
2022-12-31T18:36:46.356Z,11.00
2022-12-31T18:39:13.404Z,11.90
2022-12-31T18:41:49.722Z,11.60
2022-12-31T18:44:17.128Z,10.10
2022-12-31T18:46:44.209Z,10.00
2022-12-31T18:49:11.455Z,12.10
2022-12-31T18:51:38.536Z,9.90
2022-12-31T18:54:06.459Z,12.40
2022-12-31T18:56:33.705Z,10.60
2022-12-31T18:59:02.573Z,9.80
2022-12-31T19:01:30.799Z,10.70
2022-12-31T19:04:02.628Z,8.80
2022-12-31T19:06:30.261Z,8.90
2022-12-31T19:08:57.088Z,10.90
2022-12-31T19:11:24.667Z,11.00
2022-12-31T19:13:51.837Z,8.80
2022-12-31T19:16:18.811Z,11.80
2022-12-31T19:18:47.502Z,11.60
2022-12-31T19:21:22.465Z,11.10
2022-12-31T19:23:50.963Z,11.90
2022-12-31T19:26:21.142Z,9.60
2022-12-31T19:28:50.520Z,9.10
2022-12-31T19:31:17.886Z,10.60
2022-12-31T19:33:45.109Z,8.70
2022-12-31T19:36:20.522Z,9.80
2022-12-31T19:38:47.647Z,9.50
2022-12-31T19:41:20.565Z,10.80
2022-12-31T19:43:48.284Z,9.80
2022-12-31T19:46:18.335Z,10.10
2022-12-31T19:48:46.559Z,11.00
2022-12-31T19:51:21.788Z,9.40
2022-12-31T19:53:50.245Z,11.60
2022-12-31T19:56:20.462Z,8.70
2022-12-31T19:58:47.962Z,11.10
2022-12-31T20:01:24.424Z,9.20
2022-12-31T20:03:51.782Z,9.10
2022-12-31T20:06:19.451Z,9.80
2022-12-31T20:08:46.719Z,12.00
2022-12-31T20:11:18.483Z,11.10
2022-12-31T20:13:47.186Z,11.00
2022-12-31T20:16:17.418Z,12.20
2022-12-31T20:18:47.107Z,9.80
2022-12-31T20:21:17.977Z,11.10
2022-12-31T20:23:45.589Z,11.60
2022-12-31T20:26:12.768Z,14.70
2022-12-31T20:28:39.542Z,12.80
2022-12-31T20:31:09.296Z,13.10
2022-12-31T20:33:36.283Z,11.40
2022-12-31T20:36:05.725Z,11.30
2022-12-31T20:38:32.570Z,10.90
2022-12-31T20:41:12.108Z,11.10
2022-12-31T20:43:40.006Z,10.20
2022-12-31T20:46:14.863Z,11.40
2022-12-31T20:48:43.367Z,9.70
2022-12-31T20:51:10.255Z,10.80
2022-12-31T20:53:37.215Z,11.50
2022-12-31T20:56:05.880Z,13.60
2022-12-31T20:58:32.937Z,12.90
2022-12-31T21:01:00.580Z,10.00
2022-12-31T21:06:15.521Z,11.40
2022-12-31T21:08:42.943Z,11.30
2022-12-31T21:11:29.040Z,12.90
2022-12-31T21:13:59.113Z,11.40
2022-12-31T21:16:27.539Z,11.30
2022-12-31T21:18:54.900Z,11.00
2022-12-31T21:21:22.615Z,11.60
2022-12-31T21:23:49.525Z,11.50
2022-12-31T21:26:17.005Z,7.80
2022-12-31T21:28:44.031Z,9.90
2022-12-31T21:31:13.647Z,11.20
2022-12-31T21:33:45.420Z,8.30
2022-12-31T21:36:12.855Z,9.60
2022-12-31T21:38:39.909Z,10.40
2022-12-31T21:41:09.050Z,11.10
2022-12-31T21:43:35.966Z,10.80
2022-12-31T21:46:06.050Z,12.50
2022-12-31T21:48:33.616Z,11.30
2022-12-31T21:51:27.404Z,10.90
2022-12-31T21:53:54.251Z,13.00
2022-12-31T21:56:21.637Z,11.20
2022-12-31T21:59:16.397Z,11.20
2022-12-31T22:02:02.741Z,13.20
2022-12-31T22:07:16.945Z,10.70
2022-12-31T22:09:43.711Z,13.50
2022-12-31T22:12:10.608Z,10.70
2022-12-31T22:14:37.400Z,11.30
2022-12-31T22:17:04.144Z,7.10
2022-12-31T22:19:31.007Z,11.40
2022-12-31T22:21:57.936Z,12.60
2022-12-31T22:24:24.686Z,13.10
2022-12-31T22:26:53.978Z,12.00
2022-12-31T22:29:21.850Z,14.20
2022-12-31T22:31:48.586Z,10.90
2022-12-31T22:34:15.523Z,11.40
2022-12-31T22:36:42.388Z,12.50
2022-12-31T22:39:43.294Z,12.50
2022-12-31T22:42:02.191Z,12.70
2022-12-31T22:44:29.033Z,13.10
2022-12-31T22:46:56.467Z,13.40
2022-12-31T22:49:23.355Z,14.00
2022-12-31T22:51:55.874Z,10.90
2022-12-31T22:54:25.830Z,15.50
2022-12-31T22:56:53.178Z,18.60
2022-12-31T22:59:20.234Z,32.30
2022-12-31T23:01:47.952Z,34.50
2022-12-31T23:04:15.087Z,28.40
2022-12-31T23:06:45.022Z,23.30
2022-12-31T23:09:33.864Z,35.90
2022-12-31T23:12:01.414Z,28.60
2022-12-31T23:14:46.997Z,25.10
2022-12-31T23:17:43.733Z,43.00
2022-12-31T23:20:37.983Z,40.00
2022-12-31T23:23:09.651Z,39.30
2022-12-31T23:25:49.506Z,34.80
2022-12-31T23:28:25.387Z,33.90
2022-12-31T23:30:52.907Z,37.30
2022-12-31T23:33:23.542Z,39.90
2022-12-31T23:35:51.065Z,28.70
2022-12-31T23:38:19.041Z,29.10
2022-12-31T23:40:46.432Z,37.90
2022-12-31T23:43:21.807Z,32.60
2022-12-31T23:45:50.831Z,40.10
2022-12-31T23:48:17.606Z,42.60
2022-12-31T23:50:49.208Z,68.60
2022-12-31T23:53:19.684Z,65.40
2022-12-31T23:55:46.527Z,61.90
2022-12-31T23:58:13.260Z,51.50
